Terminal Aerodrome Forecast
Issued by NWS

Current Version | Previous Version | Text Only | Print | Product List | Glossary On
Versions: 1 2 3 4 5 6 7 8 9 10 11 12 13 14 15 16 17 18 19 20 21 22 23 24 25 26
669
FTUS42 KGSP 231739
TAFGMU
TAF
KGMU 231739Z 2318/2418 17007KT 6SM -SHRA BR SCT005 OVC010
      TEMPO 2318/2322 4SM -SHRA BR OVC005
     FM232200 18004KT 3SM BR VCSH OVC008
     FM240000 21003KT 4SM BR OVC007
     FM240700 21003KT 3SM BR VCSH OVC003
     FM241500 14006KT 4SM SHRA BR OVC007 PROB30 2415/2418 2SM TSRA
      BR OVC010CB=

USA.gov is the U.S. government's official web portal to all federal, state and local government web resources and services.